createdAt,value
2019-06-01T00:00:11.608Z,96453.02
2019-06-01T00:02:33.920Z,96448.74
2019-06-01T00:04:59.962Z,96444.82
2019-06-01T00:07:26.177Z,96442.59
2019-06-01T00:09:52.184Z,96434.55
2019-06-01T00:12:18.310Z,96434.94
2019-06-01T00:14:44.214Z,96432.83
2019-06-01T00:17:10.132Z,96433.39
2019-06-01T00:19:36.168Z,96432.41
2019-06-01T00:22:02.295Z,96432.27
2019-06-01T00:24:28.392Z,96426.34
2019-06-01T00:26:54.525Z,96426.86
2019-06-01T00:29:20.550Z,96425.39
2019-06-01T00:31:47.920Z,96429.54
2019-06-01T00:34:14.017Z,96432.37
2019-06-01T00:36:41.451Z,96434.73
2019-06-01T00:39:07.669Z,96427.50
2019-06-01T00:41:33.755Z,96437.41
2019-06-01T00:43:59.761Z,96429.87
2019-06-01T00:46:25.873Z,96432.05
2019-06-01T00:48:52.215Z,96424.63
2019-06-01T00:51:18.356Z,96425.30
2019-06-01T00:53:45.344Z,96422.20
2019-06-01T00:56:11.566Z,96425.89
2019-06-01T00:58:37.698Z,96417.85
2019-06-01T01:01:03.709Z,96419.36
2019-06-01T01:03:29.721Z,96413.62
2019-06-01T01:05:55.726Z,96420.22
2019-06-01T01:08:21.652Z,96414.48
2019-06-01T01:10:48.999Z,96418.13
2019-06-01T01:13:17.090Z,96416.97
2019-06-01T01:15:43.088Z,96414.20
2019-06-01T01:18:09.333Z,96418.01
2019-06-01T01:20:36.448Z,96421.97
2019-06-01T01:23:02.751Z,96411.97
2019-06-01T01:25:28.890Z,96413.16
2019-06-01T01:27:54.908Z,96409.36
2019-06-01T01:30:21.098Z,96411.84
2019-06-01T01:32:47.418Z,96416.66
2019-06-01T01:35:13.738Z,96419.52
2019-06-01T01:37:39.761Z,96414.27
2019-06-01T01:40:05.901Z,96411.98
2019-06-01T01:42:33.403Z,96411.04
2019-06-01T01:45:06.867Z,96410.03
2019-06-01T01:47:32.865Z,96409.56
2019-06-01T01:49:58.884Z,96414.34
2019-06-01T01:52:24.895Z,96414.66
2019-06-01T01:54:50.793Z,96414.05
2019-06-01T01:57:16.840Z,96407.17
2019-06-01T01:59:42.743Z,96406.52
2019-06-01T02:02:08.976Z,96409.28
2019-06-01T02:04:35.002Z,96401.71
2019-06-01T02:07:02.299Z,96412.27
2019-06-01T02:09:28.626Z,96408.61
2019-06-01T02:11:55.416Z,96404.16
2019-06-01T02:14:21.536Z,96407.97
2019-06-01T02:16:47.539Z,96406.52
2019-06-01T02:19:13.926Z,96411.80
2019-06-01T02:21:40.041Z,96408.15
2019-06-01T02:24:06.040Z,96410.14
2019-06-01T02:26:32.044Z,96412.95
2019-06-01T02:28:59.393Z,96416.42
2019-06-01T02:31:40.767Z,96415.57
2019-06-01T02:33:53.782Z,96418.98
2019-06-01T02:36:19.975Z,96419.63
2019-06-01T02:38:46.085Z,96411.84
2019-06-01T02:41:12.387Z,96414.94
2019-06-01T02:43:38.423Z,96411.31
2019-06-01T02:46:05.493Z,96420.86
2019-06-01T02:48:32.334Z,96415.55
2019-06-01T02:50:59.910Z,96418.84
2019-06-01T02:53:25.938Z,96417.83
2019-06-01T02:55:51.967Z,96418.59
2019-06-01T02:58:18.090Z,96415.92
2019-06-01T03:00:47.827Z,96401.38
2019-06-01T03:03:14.114Z,96402.52
2019-06-01T03:05:40.536Z,96402.14
2019-06-01T03:08:07.602Z,96399.50
2019-06-01T03:10:34.960Z,96401.77
2019-06-01T03:13:04.187Z,96398.46
2019-06-01T03:15:31.909Z,96402.87
2019-06-01T03:18:01.515Z,96400.23
2019-06-01T03:20:30.151Z,96398.05
2019-06-01T03:22:57.408Z,96395.41
2019-06-01T03:25:27.119Z,96391.27
2019-06-01T03:27:55.664Z,96394.22
2019-06-01T03:30:44.607Z,96390.09
2019-06-01T03:33:08.590Z,96393.53
2019-06-01T03:35:35.747Z,96385.12
2019-06-01T03:38:02.982Z,96385.77
2019-06-01T03:40:29.194Z,96385.43
2019-06-01T03:42:55.322Z,96394.18
2019-06-01T03:45:21.331Z,96391.99
2019-06-01T03:47:47.267Z,96390.71
2019-06-01T03:50:13.381Z,96393.72
2019-06-01T03:52:39.289Z,96393.53
2019-06-01T03:55:05.885Z,96392.82
2019-06-01T03:57:32.021Z,96392.75
2019-06-01T03:59:57.946Z,96395.00
2019-06-01T04:02:32.800Z,96390.84
2019-06-01T04:04:51.865Z,96394.53
2019-06-01T04:07:17.878Z,96402.79
2019-06-01T04:09:43.812Z,96398.09
2019-06-01T04:12:09.844Z,96400.95
2019-06-01T04:14:35.881Z,96400.03
2019-06-01T04:17:02.101Z,96404.05
2019-06-01T04:19:28.117Z,96404.66
2019-06-01T04:21:54.231Z,96401.29
2019-06-01T04:24:20.235Z,96408.50
2019-06-01T04:26:46.368Z,96405.28
2019-06-01T04:29:12.695Z,96411.20
2019-06-01T04:31:38.703Z,96413.56
2019-06-01T04:34:04.711Z,96402.11
2019-06-01T04:36:31.533Z,96403.30
2019-06-01T04:38:57.651Z,96405.46
2019-06-01T04:41:23.753Z,96412.59
2019-06-01T04:43:49.760Z,96407.92
2019-06-01T04:46:15.799Z,96404.27
2019-06-01T04:48:42.199Z,96413.13
2019-06-01T04:51:08.798Z,96410.94
2019-06-01T04:53:34.874Z,96411.44
2019-06-01T04:56:01.002Z,96411.28
2019-06-01T04:58:26.999Z,96413.92
2019-06-01T05:00:53.142Z,96415.36
2019-06-01T05:03:19.146Z,96421.59
2019-06-01T05:05:45.090Z,96420.89
2019-06-01T05:08:12.637Z,96417.50
2019-06-01T05:10:39.164Z,96423.27
2019-06-01T05:13:05.339Z,96408.86
2019-06-01T05:15:31.599Z,96418.58
2019-06-01T05:17:57.600Z,96416.44
2019-06-01T05:20:23.632Z,96418.06
2019-06-01T05:22:49.565Z,96417.88
2019-06-01T05:25:16.946Z,96414.89
2019-06-01T05:27:43.277Z,96413.66
2019-06-01T05:30:09.779Z,96415.02
2019-06-01T05:32:35.783Z,96413.94
2019-06-01T05:35:02.184Z,96416.70
2019-06-01T05:37:28.324Z,96406.48
2019-06-01T05:39:54.336Z,96412.84
2019-06-01T05:42:20.250Z,96408.98
2019-06-01T05:44:46.261Z,96414.51
2019-06-01T05:47:12.315Z,96410.14
2019-06-01T05:49:38.373Z,96410.38
2019-06-01T05:52:04.363Z,96406.34
2019-06-01T05:54:30.525Z,96408.23
2019-06-01T05:56:56.530Z,96410.62
2019-06-01T05:59:22.575Z,96406.18
2019-06-01T06:01:48.590Z,96406.41
2019-06-01T06:04:15.373Z,96404.62
2019-06-01T06:06:41.594Z,96403.05
2019-06-01T06:09:07.698Z,96405.52
2019-06-01T06:11:33.798Z,96402.00
2019-06-01T06:13:59.807Z,96406.32
2019-06-01T06:16:25.937Z,96404.19
2019-06-01T06:18:51.975Z,96405.03
2019-06-01T06:21:18.565Z,96402.11
2019-06-01T06:23:44.833Z,96406.22
2019-06-01T06:26:10.854Z,96404.63
2019-06-01T06:28:36.845Z,96408.70
2019-06-01T06:31:02.959Z,96401.69
2019-06-01T06:33:29.075Z,96393.52
2019-06-01T06:35:55.340Z,96404.55
2019-06-01T06:38:21.929Z,96403.13
2019-06-01T06:40:49.516Z,96407.31
2019-06-01T06:43:22.357Z,96407.30
2019-06-01T06:45:43.441Z,96411.53
2019-06-01T06:48:09.389Z,96403.95
2019-06-01T06:50:35.361Z,96405.95
2019-06-01T06:53:01.267Z,96401.34
2019-06-01T06:55:27.282Z,96406.91
2019-06-01T06:57:53.175Z,96411.87
2019-06-01T07:00:20.499Z,96402.65
2019-06-01T07:02:46.696Z,96405.75
2019-06-01T07:05:14.400Z,96406.64
2019-06-01T07:07:40.440Z,96401.39
2019-06-01T07:10:06.748Z,96398.65
2019-06-01T07:12:32.786Z,96401.38
2019-06-01T07:15:00.383Z,96396.97
2019-06-01T07:17:27.610Z,96386.83
2019-06-01T07:19:53.731Z,96380.31
2019-06-01T07:22:19.808Z,96385.68
2019-06-01T07:24:45.977Z,96386.30
2019-06-01T07:27:11.974Z,96379.49
2019-06-01T07:29:37.921Z,96384.12
2019-06-01T07:32:04.051Z,96389.70
2019-06-01T07:34:39.629Z,96382.03
2019-06-01T07:36:58.176Z,96375.31
2019-06-01T07:39:24.880Z,96382.77
2019-06-01T07:41:51.139Z,96379.86
2019-06-01T07:44:17.278Z,96380.33
2019-06-01T07:46:43.346Z,96374.64
2019-06-01T07:49:09.467Z,96370.69
2019-06-01T07:51:35.791Z,96371.98
2019-06-01T07:54:01.901Z,96369.73
2019-06-01T07:56:28.664Z,96369.92
2019-06-01T07:58:54.741Z,96369.11
2019-06-01T08:01:21.674Z,96368.75
2019-06-01T08:03:48.699Z,96364.97
2019-06-01T08:06:14.613Z,96361.12
2019-06-01T08:08:40.523Z,96359.57
2019-06-01T08:11:06.573Z,96360.05
2019-06-01T08:13:35.368Z,96361.66
2019-06-01T08:16:00.527Z,96359.63
2019-06-01T08:18:28.086Z,96361.24
2019-06-01T08:20:54.285Z,96365.37
2019-06-01T08:23:20.395Z,96369.28
2019-06-01T08:25:46.552Z,96371.98
2019-06-01T08:28:12.660Z,96369.67
2019-06-01T08:30:38.574Z,96363.80
2019-06-01T08:33:04.677Z,96362.53
2019-06-01T08:35:31.184Z,96366.81
2019-06-01T08:37:57.289Z,96358.26
2019-06-01T08:40:23.425Z,96360.88
2019-06-01T08:42:49.420Z,96366.56
2019-06-01T08:45:15.550Z,96362.98
2019-06-01T08:47:41.683Z,96379.36
2019-06-01T08:50:07.871Z,96368.99
2019-06-01T08:52:34.233Z,96361.78
2019-06-01T08:55:00.423Z,96367.14
2019-06-01T08:57:26.537Z,96361.84
2019-06-01T08:59:52.647Z,96354.72
2019-06-01T09:02:18.733Z,96360.51
2019-06-01T09:04:45.343Z,96350.15
2019-06-01T09:07:11.467Z,96355.89
2019-06-01T09:09:37.607Z,96366.53
2019-06-01T09:12:03.709Z,96364.61
2019-06-01T09:14:29.706Z,96351.39
2019-06-01T09:16:55.817Z,96349.52
2019-06-01T09:19:21.952Z,96351.75
2019-06-01T09:21:48.095Z,96359.29
2019-06-01T09:24:14.200Z,96355.53
2019-06-01T09:26:40.240Z,96366.07
2019-06-01T09:29:06.272Z,96372.66
2019-06-01T09:31:32.499Z,96365.13
2019-06-01T09:33:58.515Z,96362.40
2019-06-01T09:36:24.611Z,96345.23
2019-06-01T09:38:50.744Z,96352.04
2019-06-01T09:41:16.900Z,96345.88
2019-06-01T09:43:43.012Z,96355.30
2019-06-01T09:46:09.109Z,96356.55
2019-06-01T09:48:35.638Z,96351.52
2019-06-01T09:51:01.969Z,96351.03
2019-06-01T09:53:29.377Z,96354.88
2019-06-01T09:55:56.060Z,96355.59
2019-06-01T09:58:22.063Z,96356.06
2019-06-01T10:00:48.204Z,96361.14
2019-06-01T10:03:14.397Z,96357.11
2019-06-01T10:05:40.713Z,96355.02
2019-06-01T10:08:06.814Z,96355.29
2019-06-01T10:10:33.940Z,96349.95
2019-06-01T10:13:00.140Z,96355.59
2019-06-01T10:15:26.240Z,96348.87
2019-06-01T10:17:52.260Z,96354.02
2019-06-01T10:20:18.367Z,96342.48
2019-06-01T10:22:44.524Z,96345.54
2019-06-01T10:25:10.822Z,96353.65
2019-06-01T10:27:36.961Z,96352.56
2019-06-01T10:30:07.445Z,96352.82
2019-06-01T10:32:34.206Z,96359.52
2019-06-01T10:35:00.414Z,96355.97
2019-06-01T10:37:26.551Z,96359.48
2019-06-01T10:39:52.659Z,96353.02
2019-06-01T10:42:18.771Z,96349.80
2019-06-01T10:44:45.834Z,96356.30
2019-06-01T10:47:12.307Z,96344.20
2019-06-01T10:49:38.315Z,96345.02
2019-06-01T10:52:04.422Z,96340.16
2019-06-01T10:54:30.424Z,96331.01
2019-06-01T10:56:56.527Z,96324.28
2019-06-01T10:59:22.547Z,96326.97
2019-06-01T11:01:48.661Z,96331.33
2019-06-01T11:04:14.773Z,96332.42
2019-06-01T11:06:47.801Z,96334.81
2019-06-01T11:09:09.099Z,96336.98
2019-06-01T11:11:35.438Z,96325.69
2019-06-01T11:14:01.490Z,96322.53
2019-06-01T11:16:27.497Z,96319.40
2019-06-01T11:18:53.610Z,96311.72
2019-06-01T11:21:19.741Z,96315.02
2019-06-01T11:23:46.721Z,96314.27
2019-06-01T11:26:13.000Z,96321.23
2019-06-01T11:28:40.061Z,96310.42
2019-06-01T11:31:06.269Z,96312.27
2019-06-01T11:33:32.390Z,96301.23
2019-06-01T11:35:58.518Z,96303.44
2019-06-01T11:38:24.543Z,96314.22
2019-06-01T11:40:50.538Z,96301.88
2019-06-01T11:43:16.652Z,96281.15
2019-06-01T11:45:42.901Z,96287.11
2019-06-01T11:48:09.095Z,96287.39
2019-06-01T11:50:36.965Z,96277.98
2019-06-01T11:53:03.091Z,96301.14
2019-06-01T11:55:29.226Z,96296.52
2019-06-01T11:57:55.262Z,96284.36
2019-06-01T12:00:22.164Z,96280.56
2019-06-01T12:02:48.301Z,96276.25
2019-06-01T12:05:14.503Z,96287.88
2019-06-01T12:07:41.841Z,96279.55
2019-06-01T12:10:09.716Z,96276.06
2019-06-01T12:12:36.017Z,96276.10
2019-06-01T12:15:03.341Z,96254.02
2019-06-01T12:17:29.389Z,96263.20
2019-06-01T12:19:55.508Z,96270.75
2019-06-01T12:22:21.629Z,96265.10
2019-06-01T12:24:47.844Z,96264.02
2019-06-01T12:29:30.967Z,96248.36
2019-06-01T12:31:58.224Z,96256.44
2019-06-01T12:34:24.404Z,96266.16
2019-06-01T12:36:50.548Z,96255.91
2019-06-01T12:39:16.550Z,96257.00
2019-06-01T12:41:43.516Z,96257.80
2019-06-01T12:44:11.671Z,96251.06
2019-06-01T12:46:37.981Z,96248.09
2019-06-01T12:49:04.786Z,96244.84
2019-06-01T12:51:30.798Z,96248.63
2019-06-01T12:53:56.708Z,96236.20
2019-06-01T12:56:22.723Z,96237.55
2019-06-01T12:58:48.755Z,96241.33
2019-06-01T13:01:14.841Z,96238.39
2019-06-01T13:03:41.186Z,96241.06
2019-06-01T13:06:07.407Z,96229.20
2019-06-01T13:08:33.340Z,96235.91
2019-06-01T13:10:59.315Z,96233.76
2019-06-01T13:13:25.435Z,96223.23
2019-06-01T13:15:51.483Z,96222.69
2019-06-01T13:18:17.451Z,96219.19
2019-06-01T13:20:43.464Z,96221.05
2019-06-01T13:23:09.462Z,96214.56
2019-06-01T13:25:35.408Z,96220.81
2019-06-01T13:28:01.306Z,96216.24
2019-06-01T13:30:27.351Z,96205.45
2019-06-01T13:32:53.271Z,96212.50
2019-06-01T13:35:19.322Z,96201.42
2019-06-01T13:37:46.585Z,96207.08
2019-06-01T13:40:13.558Z,96194.92
2019-06-01T13:42:39.594Z,96190.27
2019-06-01T13:45:05.934Z,96194.03
2019-06-01T13:47:32.048Z,96201.30
2019-06-01T13:49:58.198Z,96196.18
2019-06-01T13:52:24.102Z,96195.13
2019-06-01T13:54:50.608Z,96183.48
2019-06-01T13:57:16.655Z,96181.02
2019-06-01T13:59:44.575Z,96184.50
2019-06-01T14:02:10.762Z,96189.59
2019-06-01T14:04:36.663Z,96187.95
2019-06-01T14:07:02.858Z,96193.89
2019-06-01T14:09:28.991Z,96188.52
2019-06-01T14:11:55.531Z,96178.05
2019-06-01T14:14:21.656Z,96178.30
2019-06-01T14:16:47.794Z,96174.23
2019-06-01T14:19:13.844Z,96172.59
2019-06-01T14:21:39.931Z,96176.93
2019-06-01T14:24:06.074Z,96177.73
2019-06-01T14:26:32.290Z,96173.72
2019-06-01T14:28:58.400Z,96165.92
2019-06-01T14:31:24.319Z,96158.02
2019-06-01T14:33:50.522Z,96157.69
2019-06-01T14:36:16.582Z,96148.42
2019-06-01T14:38:46.878Z,96146.75
2019-06-01T14:41:10.617Z,96146.75
2019-06-01T14:43:36.708Z,96137.86
2019-06-01T14:46:02.898Z,96136.47
2019-06-01T14:48:28.830Z,96136.19
2019-06-01T14:50:55.826Z,96134.09
2019-06-01T14:53:22.139Z,96130.04
2019-06-01T14:55:48.074Z,96130.61
2019-06-01T14:58:14.182Z,96124.20
2019-06-01T15:00:40.193Z,96133.19
2019-06-01T15:03:06.187Z,96122.70
2019-06-01T15:05:32.193Z,96127.87
2019-06-01T15:07:58.964Z,96130.39
2019-06-01T15:10:25.438Z,96131.49
2019-06-01T15:12:56.508Z,96126.69
2019-06-01T15:15:19.601Z,96129.42
2019-06-01T15:17:45.615Z,96127.24
2019-06-01T15:20:12.931Z,96122.69
2019-06-01T15:22:39.059Z,96127.24
2019-06-01T15:25:07.075Z,96117.73
2019-06-01T15:27:33.108Z,96125.02
2019-06-01T15:29:59.236Z,96119.64
2019-06-01T15:32:26.728Z,96119.94
2019-06-01T15:34:52.976Z,96127.53
2019-06-01T15:37:18.969Z,96143.20
2019-06-01T15:39:45.108Z,96130.82
2019-06-01T15:42:11.219Z,96137.83
2019-06-01T15:44:37.266Z,96132.16
2019-06-01T15:47:03.474Z,96125.72
2019-06-01T15:49:29.590Z,96125.16
2019-06-01T15:51:55.887Z,96124.36
2019-06-01T15:54:22.034Z,96127.05
2019-06-01T15:56:48.146Z,96116.52
2019-06-01T15:59:14.153Z,96124.88
2019-06-01T16:01:40.183Z,96122.44
2019-06-01T16:04:06.224Z,96119.72
2019-06-01T16:06:32.359Z,96128.59
2019-06-01T16:08:59.347Z,96124.04
2019-06-01T16:11:25.510Z,96122.44
2019-06-01T16:13:51.667Z,96113.01
2019-06-01T16:16:17.728Z,96111.38
2019-06-01T16:18:43.700Z,96117.60
2019-06-01T16:21:09.839Z,96122.20
2019-06-01T16:23:49.425Z,96126.22
2019-06-01T16:26:15.413Z,96118.96
2019-06-01T16:28:31.825Z,96116.53
2019-06-01T16:30:58.557Z,96128.67
2019-06-01T16:33:24.722Z,96123.80
2019-06-01T16:35:50.827Z,96124.62
2019-06-01T16:38:16.845Z,96127.58
2019-06-01T16:40:42.951Z,96122.47
2019-06-01T16:43:09.063Z,96123.53
2019-06-01T16:45:35.173Z,96123.30
2019-06-01T16:48:01.639Z,96120.31
2019-06-01T16:50:27.887Z,96125.44
2019-06-01T16:52:53.936Z,96122.21
2019-06-01T16:55:20.038Z,96115.73
2019-06-01T16:57:46.150Z,96124.08
2019-06-01T17:00:13.697Z,96116.25
2019-06-01T17:02:39.832Z,96116.80
2019-06-01T17:05:07.173Z,96112.48
2019-06-01T17:07:34.902Z,96118.69
2019-06-01T17:10:20.536Z,96116.55
2019-06-01T17:12:29.095Z,96117.08
2019-06-01T17:14:56.722Z,96118.68
2019-06-01T17:17:22.909Z,96109.53
2019-06-01T17:19:49.017Z,96116.82
2019-06-01T17:22:15.124Z,96117.35
2019-06-01T17:24:41.136Z,96117.61
2019-06-01T17:27:08.173Z,96116.27
2019-06-01T17:29:34.493Z,96112.51
2019-06-01T17:32:16.747Z,96111.44
2019-06-01T17:34:28.547Z,96114.92
2019-06-01T17:36:54.699Z,96118.97
2019-06-01T17:39:20.851Z,96121.92
2019-06-01T17:41:46.960Z,96115.20
2019-06-01T17:44:13.105Z,96115.45
2019-06-01T17:46:52.831Z,96122.34
2019-06-01T17:49:08.272Z,96114.20
2019-06-01T17:51:34.576Z,96113.94
2019-06-01T17:54:02.561Z,96124.95
2019-06-01T17:56:28.587Z,96124.91
2019-06-01T17:58:54.689Z,96127.58
2019-06-01T18:01:20.927Z,96131.30
2019-06-01T18:03:47.023Z,96146.34
2019-06-01T18:06:13.135Z,96142.51
2019-06-01T18:08:39.234Z,96150.25
2019-06-01T18:11:05.962Z,96149.14
2019-06-01T18:13:32.180Z,96147.01
2019-06-01T18:15:58.174Z,96152.85
2019-06-01T18:18:24.298Z,96136.11
2019-06-01T18:20:50.402Z,96146.56
2019-06-01T18:23:16.518Z,96140.37
2019-06-01T18:25:42.633Z,96143.77
2019-06-01T18:28:15.120Z,96139.96
2019-06-01T18:30:36.736Z,96142.34
2019-06-01T18:33:03.375Z,96143.95
2019-06-01T18:35:30.623Z,96142.57
2019-06-01T18:37:56.723Z,96143.34
2019-06-01T18:40:23.560Z,96149.77
2019-06-01T18:42:55.985Z,96146.47
2019-06-01T18:45:22.312Z,96153.92
2019-06-01T18:47:48.443Z,96155.48
2019-06-01T18:50:17.435Z,96165.93
2019-06-01T18:52:42.901Z,96164.84
2019-06-01T18:55:10.599Z,96165.31
2019-06-01T18:57:43.290Z,96168.72
2019-06-01T19:00:13.687Z,96173.77
2019-06-01T19:02:40.152Z,96168.58
2019-06-01T19:05:06.991Z,96171.81
2019-06-01T19:07:33.339Z,96172.03
2019-06-01T19:10:00.709Z,96168.27
2019-06-01T19:12:26.781Z,96172.80
2019-06-01T19:14:52.792Z,96175.44
2019-06-01T19:17:18.803Z,96173.52
2019-06-01T19:19:44.832Z,96168.34
2019-06-01T19:22:10.974Z,96166.40
2019-06-01T19:24:37.102Z,96171.70
2019-06-01T19:27:03.208Z,96164.94
2019-06-01T19:29:29.224Z,96175.65
2019-06-01T19:31:55.342Z,96174.00
2019-06-01T19:34:21.789Z,96176.61
2019-06-01T19:36:48.893Z,96171.19
2019-06-01T19:39:15.273Z,96179.64
2019-06-01T19:41:44.678Z,96171.84
2019-06-01T19:44:09.449Z,96173.09
2019-06-01T19:46:35.654Z,96166.63
2019-06-01T19:49:01.563Z,96175.19
2019-06-01T19:51:27.607Z,96172.05
2019-06-01T19:53:53.597Z,96181.11
2019-06-01T19:56:20.487Z,96191.83
2019-06-01T19:58:47.463Z,96189.39
2019-06-01T20:01:14.187Z,96189.39
2019-06-01T20:06:29.314Z,96189.75
2019-06-01T20:08:55.331Z,96191.30
2019-06-01T20:11:21.445Z,96191.81
2019-06-01T20:13:47.460Z,96193.13
2019-06-01T20:16:14.631Z,96195.41
2019-06-01T20:18:40.896Z,96200.51
2019-06-01T20:21:07.016Z,96200.89
2019-06-01T20:23:33.072Z,96199.95
2019-06-01T20:25:59.075Z,96206.73
2019-06-01T20:28:25.195Z,96201.44
2019-06-01T20:30:51.314Z,96203.05
2019-06-01T20:33:18.290Z,96200.61
2019-06-01T20:35:44.416Z,96201.69
2019-06-01T20:38:10.449Z,96204.58
2019-06-01T20:40:36.448Z,96190.64
2019-06-01T20:43:02.557Z,96198.37
2019-06-01T20:45:28.559Z,96203.15
2019-06-01T20:47:54.579Z,96203.95
2019-06-01T20:50:20.895Z,96204.70
2019-06-01T20:52:47.005Z,96199.59
2019-06-01T20:55:13.311Z,96201.70
2019-06-01T20:57:39.326Z,96201.64
2019-06-01T21:00:07.151Z,96198.69
2019-06-01T21:02:33.271Z,96201.27
2019-06-01T21:04:59.169Z,96207.12
2019-06-01T21:07:25.320Z,96210.80
2019-06-01T21:09:51.464Z,96213.45
2019-06-01T21:12:18.429Z,96213.69
2019-06-01T21:14:44.636Z,96216.61
2019-06-01T21:17:10.657Z,96204.23
2019-06-01T21:19:36.696Z,96203.66
2019-06-01T21:22:02.991Z,96206.33
2019-06-01T21:24:29.030Z,96205.23
2019-06-01T21:26:55.068Z,96211.86
2019-06-01T21:29:21.138Z,96210.43
2019-06-01T21:31:47.150Z,96210.09
2019-06-01T21:34:13.155Z,96211.92
2019-06-01T21:36:41.654Z,96206.75
2019-06-01T21:39:07.187Z,96214.22
2019-06-01T21:41:33.236Z,96217.59
2019-06-01T21:43:59.330Z,96210.30
2019-06-01T21:46:25.828Z,96209.44
2019-06-01T21:48:51.724Z,96211.02
2019-06-01T21:51:17.796Z,96211.53
2019-06-01T21:53:43.730Z,96211.19
2019-06-01T21:56:09.762Z,96211.91
2019-06-01T21:58:35.783Z,96215.38
2019-06-01T22:01:02.185Z,96210.78
2019-06-01T22:03:28.393Z,96203.31
2019-06-01T22:05:54.512Z,96199.55
2019-06-01T22:08:21.146Z,96198.80
2019-06-01T22:10:47.333Z,96201.36
2019-06-01T22:13:18.633Z,96201.88
2019-06-01T22:15:41.350Z,96205.67
2019-06-01T22:18:07.509Z,96202.70
2019-06-01T22:20:33.524Z,96205.67
2019-06-01T22:22:59.676Z,96200.50
2019-06-01T22:25:25.977Z,96203.45
2019-06-01T22:27:52.095Z,96205.16
2019-06-01T22:30:18.467Z,96198.34
2019-06-01T22:32:44.644Z,96208.48
2019-06-01T22:35:10.887Z,96202.11
2019-06-01T22:37:36.794Z,96199.72
2019-06-01T22:40:06.450Z,96191.94
2019-06-01T22:42:32.665Z,96192.45
2019-06-01T22:44:59.375Z,96193.52
2019-06-01T22:47:26.614Z,96193.98
2019-06-01T22:49:52.936Z,96195.02
2019-06-01T22:52:19.047Z,96194.44
2019-06-01T22:54:45.060Z,96190.87
2019-06-01T22:57:11.174Z,96191.38
2019-06-01T22:59:37.287Z,96188.67
2019-06-01T23:02:03.387Z,96189.66
2019-06-01T23:04:29.503Z,96180.55
2019-06-01T23:06:55.412Z,96183.70
2019-06-01T23:09:21.428Z,96187.05
2019-06-01T23:11:47.559Z,96189.09
2019-06-01T23:14:13.571Z,96183.92
2019-06-01T23:16:39.734Z,96185.96
2019-06-01T23:19:05.719Z,96182.08
2019-06-01T23:21:32.040Z,96182.79
2019-06-01T23:23:58.206Z,96174.36
2019-06-01T23:26:24.200Z,96178.01
2019-06-01T23:28:50.256Z,96175.30
2019-06-01T23:31:16.381Z,96170.87
2019-06-01T23:33:42.646Z,96173.19
2019-06-01T23:36:08.895Z,96172.00
2019-06-01T23:38:35.042Z,96169.45
2019-06-01T23:41:01.065Z,96173.33
2019-06-01T23:43:27.195Z,96176.54
2019-06-01T23:45:53.299Z,96176.19
2019-06-01T23:48:19.330Z,96181.95
2019-06-01T23:50:45.482Z,96179.70
2019-06-01T23:53:13.833Z,96180.26
2019-06-01T23:55:39.635Z,96184.69
2019-06-01T23:58:05.652Z,96174.84
